createdAt,value
2019-03-31T00:01:55.546Z,28.30
2019-03-31T00:04:26.946Z,27.63
2019-03-31T00:07:00.068Z,28.20
2019-03-31T00:09:31.962Z,28.27
2019-03-31T00:15:00.755Z,29.43
2019-03-31T00:17:32.159Z,28.97
2019-03-31T00:20:03.441Z,28.33
2019-03-31T00:22:35.954Z,29.03
2019-03-31T00:25:07.299Z,30.43
2019-03-31T00:27:38.477Z,30.00
2019-03-31T00:30:09.619Z,29.63
2019-03-31T00:32:59.925Z,29.53
2019-03-31T00:35:31.145Z,30.57
2019-03-31T00:38:03.377Z,29.13
2019-03-31T00:40:34.659Z,30.43
2019-03-31T00:43:05.789Z,31.10
2019-03-31T00:45:37.032Z,31.60
2019-03-31T00:48:08.264Z,31.20
2019-03-31T00:50:39.482Z,32.87
2019-03-31T00:53:10.600Z,32.57
2019-03-31T00:55:41.815Z,32.70
2019-03-31T00:58:16.049Z,33.60
2019-03-31T01:00:53.835Z,35.40
2019-03-31T01:03:27.091Z,35.07
2019-03-31T01:05:58.362Z,33.30
2019-03-31T01:08:30.369Z,35.20
2019-03-31T01:11:14.232Z,36.13
2019-03-31T01:13:49.891Z,34.93
2019-03-31T01:16:21.151Z,35.43
2019-03-31T01:18:52.453Z,34.80
2019-03-31T01:21:23.593Z,37.53
2019-03-31T01:23:54.713Z,37.53
2019-03-31T01:26:26.236Z,38.37
2019-03-31T01:28:57.751Z,40.73
2019-03-31T01:31:49.644Z,41.63
2019-03-31T01:34:25.236Z,38.37
2019-03-31T01:36:57.512Z,39.33
2019-03-31T01:39:29.797Z,41.43
2019-03-31T01:42:01.401Z,41.53
2019-03-31T01:44:35.658Z,41.87
2019-03-31T01:47:08.527Z,41.97
2019-03-31T01:49:39.687Z,40.17
2019-03-31T01:52:15.407Z,43.50
2019-03-31T01:54:56.483Z,42.13
2019-03-31T01:57:34.649Z,42.70
2019-03-31T02:00:10.595Z,42.73
2019-03-31T02:02:50.847Z,43.20
2019-03-31T02:05:22.067Z,42.23
2019-03-31T02:07:54.423Z,43.43
2019-03-31T02:10:25.735Z,44.57
2019-03-31T02:12:56.897Z,42.17
2019-03-31T02:15:28.254Z,40.93
2019-03-31T02:17:59.429Z,43.63
2019-03-31T02:20:30.772Z,41.73
2019-03-31T02:23:01.964Z,42.40
2019-03-31T02:25:33.249Z,45.43
2019-03-31T02:28:12.336Z,42.40
2019-03-31T02:30:43.469Z,43.73
2019-03-31T02:33:14.713Z,44.43
2019-03-31T02:36:00.073Z,44.83
2019-03-31T02:38:31.271Z,44.47
2019-03-31T02:41:03.545Z,46.20
2019-03-31T02:43:35.004Z,45.23
2019-03-31T02:46:15.570Z,44.47
2019-03-31T02:48:46.824Z,47.50
2019-03-31T02:51:18.213Z,45.30
2019-03-31T02:53:49.350Z,45.90
2019-03-31T02:56:20.857Z,45.50
2019-03-31T02:58:53.002Z,46.33
2019-03-31T03:01:25.588Z,44.70
2019-03-31T03:03:56.904Z,44.57
2019-03-31T03:06:29.080Z,45.57
2019-03-31T03:09:01.811Z,45.70
2019-03-31T03:11:36.558Z,46.30
2019-03-31T03:14:07.888Z,47.50
2019-03-31T03:16:39.145Z,47.57
2019-03-31T03:19:10.300Z,48.00
2019-03-31T03:21:41.439Z,45.37
2019-03-31T03:24:12.674Z,46.80
2019-03-31T03:26:44.003Z,46.97
2019-03-31T03:29:15.264Z,47.23
2019-03-31T03:31:56.491Z,47.83
2019-03-31T03:34:27.625Z,49.87
2019-03-31T03:36:59.562Z,48.90
2019-03-31T03:39:31.044Z,50.77
2019-03-31T03:42:36.239Z,50.30
2019-03-31T03:45:08.584Z,51.47
2019-03-31T03:47:39.800Z,50.20
2019-03-31T03:50:11.243Z,49.93
2019-03-31T03:52:42.404Z,50.17
2019-03-31T03:55:13.694Z,49.23
2019-03-31T03:57:44.790Z,49.93
2019-03-31T04:00:16.122Z,49.30
2019-03-31T04:02:47.407Z,49.77
2019-03-31T04:05:18.996Z,52.13
2019-03-31T04:07:50.346Z,49.07
2019-03-31T04:11:13.756Z,51.10
2019-03-31T04:13:45.091Z,50.67
2019-03-31T04:16:16.425Z,50.57
2019-03-31T04:18:47.601Z,51.00
2019-03-31T04:21:18.939Z,50.37
2019-03-31T04:23:50.154Z,49.63
2019-03-31T04:26:21.451Z,52.03
2019-03-31T04:28:52.626Z,49.50
2019-03-31T04:31:23.879Z,51.33
2019-03-31T04:33:55.017Z,52.40
2019-03-31T04:36:26.318Z,50.80
2019-03-31T04:39:00.115Z,51.27
2019-03-31T04:41:30.523Z,51.13
2019-03-31T04:44:01.712Z,50.67
2019-03-31T04:46:33.912Z,52.67
2019-03-31T04:49:06.164Z,52.27
2019-03-31T04:51:38.505Z,51.53
2019-03-31T04:54:09.621Z,54.20
2019-03-31T04:56:40.747Z,53.90
2019-03-31T04:59:11.982Z,52.83
2019-03-31T05:01:43.208Z,51.80
2019-03-31T05:04:14.443Z,50.43
2019-03-31T05:06:45.582Z,50.97
2019-03-31T05:09:17.660Z,50.73
2019-03-31T05:11:48.880Z,50.57
2019-03-31T05:14:20.009Z,49.53
2019-03-31T05:16:51.131Z,49.00
2019-03-31T05:19:22.392Z,49.30
2019-03-31T05:21:53.619Z,48.03
2019-03-31T05:24:24.662Z,47.90
2019-03-31T05:26:59.382Z,48.50
2019-03-31T05:29:37.746Z,46.23
2019-03-31T05:32:09.101Z,44.60
2019-03-31T05:34:40.216Z,45.97
2019-03-31T05:37:11.787Z,45.40
2019-03-31T05:39:42.935Z,44.10
2019-03-31T05:42:29.957Z,42.57
2019-03-31T05:45:06.291Z,40.13
2019-03-31T05:47:37.867Z,39.60
2019-03-31T05:50:13.101Z,40.47
2019-03-31T05:52:44.705Z,38.97
2019-03-31T05:55:27.140Z,39.30
2019-03-31T05:57:58.324Z,36.20
2019-03-31T06:00:38.320Z,38.30
2019-03-31T06:03:27.359Z,37.40
2019-03-31T06:06:04.626Z,36.30
2019-03-31T06:08:35.959Z,35.13
2019-03-31T06:11:07.210Z,36.93
2019-03-31T06:13:38.403Z,34.47
2019-03-31T06:16:17.010Z,34.13
2019-03-31T06:18:51.320Z,33.63
2019-03-31T06:21:22.676Z,33.13
2019-03-31T06:23:55.073Z,33.57
2019-03-31T06:26:26.275Z,29.97
2019-03-31T06:28:57.535Z,30.83
2019-03-31T06:31:30.775Z,31.17
2019-03-31T06:34:01.994Z,31.03
2019-03-31T06:37:02.624Z,30.13
2019-03-31T06:39:34.332Z,30.53
2019-03-31T06:42:05.775Z,30.70
2019-03-31T06:44:38.958Z,30.30
2019-03-31T06:47:10.501Z,29.87
2019-03-31T06:49:41.754Z,30.33
2019-03-31T06:52:13.011Z,31.03
2019-03-31T06:54:44.229Z,32.67
2019-03-31T06:57:15.479Z,33.30
2019-03-31T06:59:46.772Z,31.77
2019-03-31T07:02:18.022Z,31.03
2019-03-31T07:05:00.384Z,30.30
2019-03-31T07:07:23.845Z,29.40
2019-03-31T07:09:55.378Z,28.50
2019-03-31T07:12:27.596Z,30.60
2019-03-31T07:14:58.761Z,29.30
2019-03-31T07:17:29.996Z,28.10
2019-03-31T07:20:01.216Z,28.00
2019-03-31T07:22:33.650Z,27.33
2019-03-31T07:25:05.644Z,27.60
2019-03-31T07:27:37.033Z,27.43
2019-03-31T07:30:09.235Z,27.63
2019-03-31T07:32:40.488Z,27.80
2019-03-31T07:35:18.638Z,29.13
2019-03-31T07:37:48.236Z,27.93
2019-03-31T07:40:21.133Z,29.93
2019-03-31T07:42:52.667Z,29.10
2019-03-31T07:45:24.979Z,29.17
2019-03-31T07:47:56.273Z,27.50
2019-03-31T07:50:28.822Z,29.40
2019-03-31T07:53:01.047Z,30.67
2019-03-31T07:55:41.197Z,29.50
2019-03-31T07:58:17.588Z,29.87
2019-03-31T08:00:48.758Z,30.33
2019-03-31T08:03:22.074Z,30.23
2019-03-31T08:05:53.521Z,29.63
2019-03-31T08:08:27.585Z,30.07
2019-03-31T08:10:59.248Z,29.93
2019-03-31T08:13:34.219Z,30.20
2019-03-31T08:16:07.473Z,28.50
2019-03-31T08:18:39.053Z,29.03
2019-03-31T08:21:10.630Z,30.00
2019-03-31T08:23:43.865Z,29.73
2019-03-31T08:26:15.219Z,29.47
2019-03-31T08:28:46.329Z,30.10
2019-03-31T08:31:17.665Z,27.60
2019-03-31T08:33:54.108Z,29.60
2019-03-31T08:36:25.503Z,28.03
2019-03-31T08:39:00.307Z,27.07
2019-03-31T08:41:33.472Z,27.83
2019-03-31T08:44:08.682Z,27.53
2019-03-31T08:46:39.888Z,26.90
2019-03-31T08:49:13.988Z,26.60
2019-03-31T08:51:45.282Z,25.23
2019-03-31T08:54:16.532Z,17.57
2019-03-31T08:56:47.831Z,21.67
2019-03-31T08:59:29.963Z,21.50
2019-03-31T09:02:03.473Z,20.50
2019-03-31T09:04:34.807Z,21.40
2019-03-31T09:07:06.081Z,19.63
2019-03-31T09:09:37.228Z,20.33
2019-03-31T09:12:08.540Z,18.03
2019-03-31T09:14:40.848Z,19.60
2019-03-31T09:17:12.068Z,21.50
2019-03-31T09:19:43.638Z,21.13
2019-03-31T09:22:14.993Z,20.93
2019-03-31T09:24:54.384Z,21.07
2019-03-31T09:27:25.486Z,20.43
2019-03-31T09:29:56.628Z,20.07
2019-03-31T09:32:27.803Z,19.93
2019-03-31T09:34:58.924Z,20.90
2019-03-31T09:37:30.036Z,20.47
2019-03-31T09:40:01.335Z,21.10
2019-03-31T09:42:33.686Z,19.33
2019-03-31T09:45:05.696Z,19.77
2019-03-31T09:47:38.930Z,19.23
2019-03-31T09:50:11.580Z,19.43
2019-03-31T09:52:44.028Z,19.70
2019-03-31T09:55:22.902Z,21.43
2019-03-31T09:57:52.733Z,18.90
2019-03-31T10:00:50.748Z,20.50
2019-03-31T10:03:22.561Z,19.73
2019-03-31T10:05:53.688Z,20.00
2019-03-31T10:08:30.121Z,20.43
2019-03-31T10:11:02.968Z,19.60
2019-03-31T10:13:34.430Z,20.23
2019-03-31T10:16:05.780Z,19.77
2019-03-31T10:18:58.432Z,20.43
2019-03-31T10:21:29.703Z,19.03
2019-03-31T10:24:00.986Z,18.10
2019-03-31T10:26:32.619Z,21.20
2019-03-31T10:29:03.936Z,21.40
2019-03-31T10:31:35.240Z,19.60
2019-03-31T10:34:06.717Z,19.40
2019-03-31T10:36:44.882Z,18.60
2019-03-31T10:39:12.942Z,16.77
2019-03-31T10:41:53.811Z,18.43
2019-03-31T10:44:25.123Z,17.80
2019-03-31T10:47:02.300Z,17.40
2019-03-31T10:49:34.868Z,15.00
2019-03-31T10:52:06.198Z,16.20
2019-03-31T10:54:37.376Z,16.80
2019-03-31T10:57:08.585Z,22.80
2019-03-31T10:59:39.862Z,24.97
2019-03-31T11:02:11.082Z,25.17
2019-03-31T11:04:42.425Z,24.57
2019-03-31T11:07:13.699Z,18.57
2019-03-31T11:09:51.005Z,23.87
2019-03-31T11:12:22.266Z,21.90
2019-03-31T11:14:55.383Z,19.70
2019-03-31T11:17:26.647Z,22.17
2019-03-31T11:20:00.609Z,23.33
2019-03-31T11:22:41.556Z,19.00
2019-03-31T11:25:28.900Z,17.53
2019-03-31T11:27:58.016Z,19.33
2019-03-31T11:30:29.181Z,20.90
2019-03-31T11:33:00.373Z,20.53
2019-03-31T11:35:33.748Z,18.23
2019-03-31T11:38:04.978Z,19.10
2019-03-31T11:40:36.594Z,19.80
2019-03-31T11:43:07.929Z,20.03
2019-03-31T11:45:40.395Z,19.37
2019-03-31T11:48:11.909Z,19.07
2019-03-31T11:50:43.235Z,21.37
2019-03-31T11:53:14.571Z,19.17
2019-03-31T11:55:45.837Z,19.10
2019-03-31T11:58:17.193Z,18.93
2019-03-31T12:00:53.133Z,19.60
2019-03-31T12:03:24.654Z,18.23
2019-03-31T12:05:56.150Z,16.27
2019-03-31T12:08:27.653Z,18.00
2019-03-31T12:11:02.340Z,15.70
2019-03-31T12:13:35.686Z,18.53
2019-03-31T12:16:07.055Z,17.97
2019-03-31T12:18:41.737Z,17.13
2019-03-31T12:21:14.044Z,16.77
2019-03-31T12:23:47.261Z,16.87
2019-03-31T12:26:19.588Z,17.33
2019-03-31T12:28:57.591Z,16.47
2019-03-31T12:31:29.109Z,18.30
2019-03-31T12:34:00.882Z,14.27
2019-03-31T12:36:32.144Z,14.47
2019-03-31T12:39:05.972Z,14.07
2019-03-31T12:41:39.216Z,14.10
2019-03-31T12:44:11.362Z,15.67
2019-03-31T12:46:50.094Z,15.40
2019-03-31T12:49:21.490Z,15.00
2019-03-31T12:51:55.336Z,13.30
2019-03-31T12:54:32.059Z,13.03
2019-03-31T12:57:04.440Z,15.30
2019-03-31T12:59:35.768Z,14.30
2019-03-31T13:02:07.040Z,13.90
2019-03-31T13:04:38.374Z,13.23
2019-03-31T13:07:14.996Z,13.73
2019-03-31T13:09:54.292Z,12.87
2019-03-31T13:12:25.878Z,14.13
2019-03-31T13:14:57.351Z,12.33
2019-03-31T13:17:29.276Z,11.77
2019-03-31T13:20:02.168Z,11.40
2019-03-31T13:22:35.574Z,11.40
2019-03-31T13:25:07.206Z,12.03
2019-03-31T13:27:40.098Z,12.80
2019-03-31T13:30:12.116Z,13.03
2019-03-31T13:32:45.219Z,12.97
2019-03-31T13:35:22.591Z,11.80
2019-03-31T13:38:10.040Z,11.43
2019-03-31T13:40:30.040Z,12.50
2019-03-31T13:43:02.453Z,13.33
2019-03-31T13:45:33.763Z,13.33
2019-03-31T13:48:10.005Z,12.77
2019-03-31T13:50:42.564Z,13.23
2019-03-31T13:53:16.337Z,14.10
2019-03-31T13:55:53.499Z,11.83
2019-03-31T13:58:28.653Z,12.37
2019-03-31T14:01:02.057Z,12.77
2019-03-31T14:03:33.324Z,11.77
2019-03-31T14:06:07.643Z,11.73
2019-03-31T14:08:38.948Z,11.50
2019-03-31T14:11:10.353Z,12.33
2019-03-31T14:13:41.851Z,12.57
2019-03-31T14:16:13.144Z,12.53
2019-03-31T14:18:46.307Z,11.23
2019-03-31T14:21:17.758Z,11.27
2019-03-31T14:23:53.726Z,10.13
2019-03-31T14:26:25.144Z,10.57
2019-03-31T14:28:57.468Z,10.47
2019-03-31T14:31:28.713Z,10.80
2019-03-31T14:34:00.027Z,10.10
2019-03-31T14:36:31.411Z,11.73
2019-03-31T14:39:02.953Z,12.63
2019-03-31T14:41:34.312Z,12.10
2019-03-31T14:44:05.702Z,11.70
2019-03-31T14:46:38.211Z,11.90
2019-03-31T14:49:09.528Z,10.47
2019-03-31T14:51:42.874Z,8.77
2019-03-31T14:54:14.183Z,9.13
2019-03-31T14:56:46.953Z,9.00
2019-03-31T14:59:18.365Z,9.70
2019-03-31T15:01:49.582Z,9.47
2019-03-31T15:04:20.891Z,8.27
2019-03-31T15:06:53.291Z,6.77
2019-03-31T15:09:24.695Z,9.53
2019-03-31T15:11:56.018Z,9.03
2019-03-31T15:14:27.396Z,8.37
2019-03-31T15:16:59.699Z,7.90
2019-03-31T15:19:37.822Z,7.80
2019-03-31T15:22:12.614Z,8.27
2019-03-31T15:24:43.911Z,8.30
2019-03-31T15:27:15.155Z,7.50
2019-03-31T15:29:46.351Z,7.73
2019-03-31T15:32:17.471Z,7.13
2019-03-31T15:34:49.839Z,6.97
2019-03-31T15:37:25.819Z,7.90
2019-03-31T15:39:59.343Z,7.07
2019-03-31T15:42:31.645Z,7.77
2019-03-31T15:45:02.998Z,7.60
2019-03-31T15:47:35.997Z,7.60
2019-03-31T15:50:07.865Z,6.70
2019-03-31T15:52:39.587Z,6.83
2019-03-31T15:55:11.654Z,6.33
2019-03-31T15:57:42.962Z,7.20
2019-03-31T16:00:15.100Z,6.80
2019-03-31T16:02:48.961Z,6.87
2019-03-31T16:05:20.525Z,6.80
2019-03-31T16:07:51.473Z,6.47
2019-03-31T16:10:22.201Z,6.93
2019-03-31T16:12:54.256Z,6.30
2019-03-31T16:15:25.150Z,6.10
2019-03-31T16:17:55.900Z,6.27
2019-03-31T16:20:26.912Z,5.90
2019-03-31T16:23:01.071Z,5.63
2019-03-31T16:25:37.744Z,5.40
2019-03-31T16:28:15.223Z,4.37
2019-03-31T16:30:48.391Z,4.10
2019-03-31T16:33:19.649Z,4.13
2019-03-31T16:35:52.172Z,3.40
2019-03-31T16:38:25.727Z,4.10
2019-03-31T16:40:57.404Z,4.00
2019-03-31T16:43:29.323Z,4.20
2019-03-31T16:46:01.558Z,4.10
2019-03-31T16:48:33.748Z,3.80
2019-03-31T16:51:04.831Z,4.47
2019-03-31T16:53:39.300Z,4.07
2019-03-31T16:56:10.442Z,4.00
2019-03-31T16:58:42.396Z,4.07
2019-03-31T17:01:13.672Z,4.13
2019-03-31T17:03:44.591Z,3.77
2019-03-31T17:06:15.542Z,3.73
2019-03-31T17:08:47.622Z,3.50
2019-03-31T17:11:19.533Z,3.33
2019-03-31T17:13:52.439Z,3.60
2019-03-31T17:16:26.449Z,3.83
2019-03-31T17:18:57.515Z,3.60
2019-03-31T17:21:28.445Z,3.87
2019-03-31T17:23:59.381Z,3.40
2019-03-31T17:26:31.316Z,3.47
2019-03-31T17:29:05.911Z,3.50
2019-03-31T17:31:36.716Z,3.90
2019-03-31T17:34:07.565Z,4.37
2019-03-31T17:36:38.281Z,4.30
2019-03-31T17:39:09.026Z,4.20
2019-03-31T17:41:39.973Z,4.20
2019-03-31T17:44:10.659Z,3.67
2019-03-31T17:46:41.964Z,3.63
2019-03-31T17:49:13.062Z,3.50
2019-03-31T17:51:45.748Z,4.17
2019-03-31T17:54:17.414Z,3.53
2019-03-31T17:56:48.259Z,3.83
2019-03-31T17:59:20.067Z,3.20
2019-03-31T18:01:51.858Z,3.50
2019-03-31T18:04:34.162Z,3.17
2019-03-31T18:07:06.948Z,3.40
2019-03-31T18:09:38.130Z,3.50
2019-03-31T18:12:11.936Z,3.70
2019-03-31T18:14:45.419Z,3.20
2019-03-31T18:17:16.885Z,3.47
2019-03-31T18:19:49.022Z,3.40
2019-03-31T18:22:20.771Z,3.60
2019-03-31T18:24:54.521Z,3.40
2019-03-31T18:27:33.822Z,2.93
2019-03-31T18:30:07.190Z,3.50
2019-03-31T18:32:38.054Z,3.00
2019-03-31T18:35:08.834Z,3.30
2019-03-31T18:37:40.523Z,3.73
2019-03-31T18:40:12.425Z,3.37
2019-03-31T18:42:44.651Z,3.23
2019-03-31T18:45:20.183Z,3.30
2019-03-31T18:48:01.347Z,3.20
2019-03-31T18:50:33.958Z,3.03
2019-03-31T18:53:12.381Z,3.37
2019-03-31T18:55:51.193Z,3.27
2019-03-31T18:58:25.254Z,3.20
2019-03-31T19:01:11.386Z,3.10
2019-03-31T19:03:49.710Z,3.20
2019-03-31T19:06:28.440Z,3.47
2019-03-31T19:09:03.811Z,3.17
2019-03-31T19:11:59.084Z,2.80
2019-03-31T19:14:34.225Z,2.87
2019-03-31T19:17:15.843Z,2.60
2019-03-31T19:19:51.165Z,2.57
2019-03-31T19:22:24.754Z,2.50
2019-03-31T19:25:13.714Z,2.73
2019-03-31T19:27:49.487Z,2.30
2019-03-31T19:30:22.020Z,2.30
2019-03-31T19:33:15.209Z,2.70
2019-03-31T19:36:00.483Z,2.40
2019-03-31T19:38:50.875Z,2.00
2019-03-31T19:41:38.706Z,2.13
2019-03-31T19:44:18.446Z,2.37
2019-03-31T19:47:05.752Z,2.33
2019-03-31T19:49:38.399Z,2.03
2019-03-31T19:52:18.661Z,1.80
2019-03-31T19:54:54.222Z,2.40
2019-03-31T19:57:27.146Z,2.53
2019-03-31T20:00:15.742Z,2.10
2019-03-31T20:02:49.564Z,1.90
2019-03-31T20:05:25.249Z,1.93
2019-03-31T20:08:02.419Z,2.27
2019-03-31T20:10:54.450Z,1.97
2019-03-31T20:13:45.177Z,1.80
2019-03-31T20:16:36.034Z,2.50
2019-03-31T20:19:14.433Z,2.00
2019-03-31T20:22:20.515Z,2.40
2019-03-31T20:25:03.341Z,2.60
2019-03-31T20:27:54.214Z,1.80
2019-03-31T20:30:59.820Z,2.13
2019-03-31T20:33:32.119Z,2.40
2019-03-31T20:36:04.495Z,2.30
2019-03-31T20:38:55.393Z,2.63
2019-03-31T20:41:32.009Z,2.67
2019-03-31T20:44:02.808Z,2.30
2019-03-31T20:46:33.543Z,2.43
2019-03-31T20:49:04.287Z,2.50
2019-03-31T20:52:10.042Z,2.50
2019-03-31T20:54:41.816Z,2.20
2019-03-31T20:57:12.443Z,2.23
2019-03-31T20:59:43.198Z,2.47
2019-03-31T21:02:31.955Z,2.40
2019-03-31T21:05:02.585Z,2.17
2019-03-31T21:07:33.586Z,2.10
2019-03-31T21:10:07.390Z,2.60
2019-03-31T21:12:38.134Z,2.13
2019-03-31T21:15:08.842Z,2.33
2019-03-31T21:17:39.771Z,2.70
2019-03-31T21:20:10.687Z,2.20
2019-03-31T21:22:41.584Z,2.50
2019-03-31T21:25:13.823Z,2.87
2019-03-31T21:27:44.748Z,3.13
2019-03-31T21:30:33.662Z,2.53
2019-03-31T21:33:05.450Z,2.60
2019-03-31T21:35:48.439Z,2.67
2019-03-31T21:38:19.041Z,2.60
2019-03-31T21:40:50.033Z,2.50
2019-03-31T21:43:20.634Z,2.30
2019-03-31T21:45:58.238Z,2.57
2019-03-31T21:48:28.944Z,2.43
2019-03-31T21:50:59.674Z,2.53
2019-03-31T21:53:31.503Z,2.73
2019-03-31T21:56:02.135Z,2.67
2019-03-31T21:58:33.029Z,1.63
2019-03-31T22:01:29.995Z,2.27
2019-03-31T22:04:00.696Z,2.07
2019-03-31T22:06:32.513Z,1.70
2019-03-31T22:09:04.873Z,2.20
2019-03-31T22:11:37.072Z,2.20
2019-03-31T22:14:10.484Z,2.67
2019-03-31T22:16:42.222Z,2.17
2019-03-31T22:19:14.924Z,1.67
2019-03-31T22:21:51.617Z,1.67
2019-03-31T22:24:22.173Z,1.80
2019-03-31T22:26:52.660Z,1.40
2019-03-31T22:29:29.046Z,1.43
2019-03-31T22:31:59.737Z,2.00
2019-03-31T22:34:31.493Z,1.70
2019-03-31T22:37:03.258Z,1.90
2019-03-31T22:39:40.030Z,1.70
2019-03-31T22:42:10.768Z,1.80
2019-03-31T22:44:41.685Z,1.90
2019-03-31T22:47:19.797Z,1.60
2019-03-31T22:49:50.434Z,1.50
2019-03-31T22:52:21.178Z,1.90
2019-03-31T22:54:51.760Z,1.57
2019-03-31T22:57:22.416Z,1.80
2019-03-31T22:59:57.152Z,1.70
2019-03-31T23:02:31.708Z,1.40
2019-03-31T23:05:03.361Z,1.73
2019-03-31T23:07:34.073Z,2.10
2019-03-31T23:10:05.844Z,1.83
2019-03-31T23:12:36.699Z,1.60
2019-03-31T23:15:07.748Z,1.77
2019-03-31T23:17:41.665Z,1.80
2019-03-31T23:20:12.384Z,1.77
2019-03-31T23:22:42.866Z,1.80
2019-03-31T23:25:15.557Z,1.60
2019-03-31T23:27:46.265Z,1.87
2019-03-31T23:30:17.011Z,1.70
2019-03-31T23:32:53.445Z,1.70
2019-03-31T23:35:24.162Z,1.73
2019-03-31T23:37:54.824Z,1.53
2019-03-31T23:40:25.424Z,2.17
2019-03-31T23:42:56.307Z,1.70
2019-03-31T23:45:26.893Z,2.00
2019-03-31T23:47:57.550Z,1.80
2019-03-31T23:50:28.151Z,2.10
2019-03-31T23:52:58.926Z,1.27
2019-03-31T23:55:29.585Z,1.70
2019-03-31T23:58:04.269Z,1.70
